עמוד ראשי
תמונות לווין תחזית 15-יוםאקליםתחזית ים סופות טרופיות ברק שדות תעופהשאלות נפוצות עלון אודות
מזג אוויר : אירופה אפריקה אמריקה הצפונית אמריקה הדרומית אסיה אוסטרליה-אוקיאניה אחר
שפות איש קשר

סלוניקי, יוון

קו רוחב: 40-31N, קו אורך: 022-58E, גובה: 8 m


METAR: LGTS 220120Z 11005KT 9999 FEW010 12/10 Q1009 NOSIG
TAF: LGTS 212300Z 2200/2224 VRB03KT 9999 FEW025 PROB40 TEMPO 2202/2208 5000 BR FEW008 SCT020 PROB30 TEMPO 2203/2207 0800 FG SCT007 BECMG 2212/2214 18010KT BECMG 2220/2222 SCT025 SCT045

זמן: 04:32 (01:32 UTC)

תצפית מזג אוויר נוכחית

הדו"ח נערך לפני 12 דקות, בשעה 01:20 UTC
רוח 5 קשר מכיוון מזרח/דרום-מזרח
טמפרטורת 12°C
לחות 88%
לחץ 1009 hPa
ראות 10 קילומטר או יותר
מעט עננים בגובה 1000 רגל

שינוי יחידות

תחזית

הדו"ח נערך לפני 2 שעות ו 32 דקות, בשעה 23:00 UTC
תחזית בתוקף מ 22 ב 00 UTC עד 22 ב 24 UTC
רוח 3 קשר רוח עם כיוונים משתנים
ראות 10 קילומטר או יותר
מעט עננים בגובה 2500 רגל
הסתברות 40% :
זמנית מ -
22 ב 02 UTC עד 22 ב 08 UTC
ראות: 5000 m
מעט עננים בגובה 800 רגל
עננים פזורים בגובה 2000 רגל
אד
הסתברות 30% :
זמנית מ -
22 ב 03 UTC עד 22 ב 07 UTC
ראות: 0800 m
עננים פזורים בגובה 700 רגל
ערפל
יעשה מ
22 ב 12 UTC עד 22 ב 14 UTC
רוח 10 קשר מכיוון דרום
יעשה מ
22 ב 20 UTC עד 22 ב 22 UTC
עננים פזורים בגובה 2500 רגל
עננים פזורים בגובה 4500 רגל
המידע באתר זה מותנה של תניית פטור
מזג אוויר : אירופה אפריקה אמריקה הצפונית אמריקה הדרומית אסיה אוסטרליה-אוקיאניה אחר
תמונות לווין תחזית 15-יוםאקליםתחזית ים סופות טרופיות ברק שדות תעופהשאלות נפוצות שפות איש קשר עלון אודות